sensor_id;sensor_type;location;lat;lon;timestamp;pressure;altitude;pressure_sealevel;temperature;humidity
69624;BME280;56843;52.020;5.670;2023-04-28T00:00:05;101186.50;;;11.37;44.12
69624;BME280;56843;52.020;5.670;2023-04-28T00:01:36;101199.88;;;11.37;44.14
69624;BME280;56843;52.020;5.670;2023-04-28T00:03:07;101202.22;;;11.39;44.27
69624;BME280;56843;52.020;5.670;2023-04-28T00:04:37;101192.63;;;11.38;44.22
69624;BME280;56843;52.020;5.670;2023-04-28T00:06:08;101199.41;;;11.35;43.95
69624;BME280;56843;52.020;5.670;2023-04-28T00:07:39;101206.66;;;11.35;44.24
69624;BME280;56843;52.020;5.670;2023-04-28T00:09:09;101212.31;;;11.33;44.23
69624;BME280;56843;52.020;5.670;2023-04-28T00:10:40;101205.38;;;11.32;44.25
69624;BME280;56843;52.020;5.670;2023-04-28T00:12:10;101208.38;;;11.31;44.22
69624;BME280;56843;52.020;5.670;2023-04-28T00:13:41;101202.25;;;11.30;44.13
69624;BME280;56843;52.020;5.670;2023-04-28T00:15:11;101186.53;;;11.29;44.06
69624;BME280;56843;52.020;5.670;2023-04-28T00:16:42;101187.16;;;11.26;44.34
69624;BME280;56843;52.020;5.670;2023-04-28T00:18:13;101172.22;;;11.25;44.26
69624;BME280;56843;52.020;5.670;2023-04-28T00:19:43;101187.94;;;11.26;44.33
69624;BME280;56843;52.020;5.670;2023-04-28T00:21:15;101184.47;;;11.26;44.14
69624;BME280;56843;52.020;5.670;2023-04-28T00:22:47;101182.13;;;11.24;44.14
69624;BME280;56843;52.020;5.670;2023-04-28T00:24:18;101179.13;;;11.26;44.25
69624;BME280;56843;52.020;5.670;2023-04-28T00:25:52;101182.91;;;11.25;44.24
69624;BME280;56843;52.020;5.670;2023-04-28T00:27:23;101171.75;;;11.23;44.06
69624;BME280;56843;52.020;5.670;2023-04-28T00:28:54;101165.94;;;11.21;44.33
69624;BME280;56843;52.020;5.670;2023-04-28T00:30:24;101167.03;;;11.20;44.23
69624;BME280;56843;52.020;5.670;2023-04-28T00:31:55;101160.13;;;11.19;44.31
69624;BME280;56843;52.020;5.670;2023-04-28T00:33:25;101163.91;;;11.18;44.53
69624;BME280;56843;52.020;5.670;2023-04-28T00:34:56;101167.66;;;11.17;44.65
69624;BME280;56843;52.020;5.670;2023-04-28T00:36:26;101166.09;;;11.16;44.28
69624;BME280;56843;52.020;5.670;2023-04-28T00:38:01;101150.69;;;11.13;44.45
69624;BME280;56843;52.020;5.670;2023-04-28T00:39:32;101149.91;;;11.12;44.40
69624;BME280;56843;52.020;5.670;2023-04-28T00:41:03;101145.69;;;11.11;44.43
69624;BME280;56843;52.020;5.670;2023-04-28T00:42:33;101138.75;;;11.10;44.50
69624;BME280;56843;52.020;5.670;2023-04-28T00:44:04;101135.28;;;11.09;44.24
69624;BME280;56843;52.020;5.670;2023-04-28T00:45:34;101119.25;;;11.09;44.24
69624;BME280;56843;52.020;5.670;2023-04-28T00:47:05;101132.63;;;11.09;44.42
69624;BME280;56843;52.020;5.670;2023-04-28T00:48:37;101124.59;;;11.09;44.63
69624;BME280;56843;52.020;5.670;2023-04-28T00:50:08;101116.56;;;11.09;44.86
69624;BME280;56843;52.020;5.670;2023-04-28T00:51:39;101116.91;;;11.08;44.72
69624;BME280;56843;52.020;5.670;2023-04-28T00:53:11;101116.91;;;11.08;44.58
69624;BME280;56843;52.020;5.670;2023-04-28T00:54:41;101115.03;;;11.08;44.56
69624;BME280;56843;52.020;5.670;2023-04-28T00:56:12;101119.56;;;11.08;44.64
69624;BME280;56843;52.020;5.670;2023-04-28T00:57:43;101111.56;;;11.08;44.46
69624;BME280;56843;52.020;5.670;2023-04-28T00:59:13;101108.09;;;11.07;44.72
69624;BME280;56843;52.020;5.670;2023-04-28T01:02:52;101106.84;;;11.05;44.74
69624;BME280;56843;52.020;5.670;2023-04-28T01:04:25;101111.09;;;11.06;44.85
69624;BME280;56843;52.020;5.670;2023-04-28T01:05:56;101113.44;;;11.07;44.96
69624;BME280;56843;52.020;5.670;2023-04-28T01:07:27;101112.97;;;11.05;44.89
69624;BME280;56843;52.020;5.670;2023-04-28T01:08:58;101114.84;;;11.05;45.20
69624;BME280;56843;52.020;5.670;2023-04-28T01:10:29;101115.19;;;11.03;45.46
69624;BME280;56843;52.020;5.670;2023-04-28T01:12:02;101115.50;;;11.02;45.37
69624;BME280;56843;52.020;5.670;2023-04-28T01:13:51;101107.31;;;10.98;45.49
69624;BME280;56843;52.020;5.670;2023-04-28T01:15:22;101111.56;;;10.99;45.75
69624;BME280;56843;52.020;5.670;2023-04-28T01:16:56;101110.31;;;10.97;45.88
69624;BME280;56843;52.020;5.670;2023-04-28T01:18:27;101104.03;;;10.93;46.15
69624;BME280;56843;52.020;5.670;2023-04-28T01:19:57;101108.59;;;10.92;46.44
69624;BME280;56843;52.020;5.670;2023-04-28T01:21:31;101108.47;;;10.89;46.24
69624;BME280;56843;52.020;5.670;2023-04-28T01:23:03;101113.31;;;10.87;46.44
69624;BME280;56843;52.020;5.670;2023-04-28T01:24:34;101110.16;;;10.85;46.51
69624;BME280;56843;52.020;5.670;2023-04-28T01:26:08;101115.84;;;10.83;46.88
69624;BME280;56843;52.020;5.670;2023-04-28T01:27:38;101112.69;;;10.81;46.54
69624;BME280;56843;52.020;5.670;2023-04-28T01:29:09;101118.03;;;10.81;46.77
69624;BME280;56843;52.020;5.670;2023-04-28T01:30:40;101117.25;;;10.81;46.86
69624;BME280;56843;52.020;5.670;2023-04-28T01:32:11;101111.75;;;10.77;47.25
69624;BME280;56843;52.020;5.670;2023-04-28T01:33:42;101096.03;;;10.76;46.94
69624;BME280;56843;52.020;5.670;2023-04-28T01:35:13;101106.72;;;10.76;46.98
69624;BME280;56843;52.020;5.670;2023-04-28T01:36:43;101100.63;;;10.75;47.17
69624;BME280;56843;52.020;5.670;2023-04-28T01:38:14;101096.03;;;10.76;47.24
69624;BME280;56843;52.020;5.670;2023-04-28T01:39:45;101104.03;;;10.76;47.08
69624;BME280;56843;52.020;5.670;2023-04-28T01:41:15;101102.81;;;10.73;47.18
69624;BME280;56843;52.020;5.670;2023-04-28T01:42:46;101101.22;;;10.72;47.26
69624;BME280;56843;52.020;5.670;2023-04-28T01:44:16;101103.91;;;10.72;47.33
69624;BME280;56843;52.020;5.670;2023-04-28T01:45:47;101103.91;;;10.72;47.32
69624;BME280;56843;52.020;5.670;2023-04-28T01:47:17;101104.22;;;10.71;47.23
69624;BME280;56843;52.020;5.670;2023-04-28T01:48:48;101101.09;;;10.69;47.56
69624;BME280;56843;52.020;5.670;2023-04-28T01:50:18;101094.94;;;10.68;47.51
69624;BME280;56843;52.020;5.670;2023-04-28T01:51:48;101084.09;;;10.65;47.63
69624;BME280;56843;52.020;5.670;2023-04-28T01:53:19;101086.47;;;10.66;47.72
69624;BME280;56843;52.020;5.670;2023-04-28T01:54:50;101065.25;;;10.61;47.65
69624;BME280;56843;52.020;5.670;2023-04-28T01:56:20;101078.00;;;10.64;47.67
69624;BME280;56843;52.020;5.670;2023-04-28T01:57:52;101086.00;;;10.64;47.79
69624;BME280;56843;52.020;5.670;2023-04-28T01:59:22;101077.53;;;10.62;47.73
69624;BME280;56843;52.020;5.670;2023-04-28T02:00:54;101074.84;;;10.62;47.77
69624;BME280;56843;52.020;5.670;2023-04-28T02:02:26;101075.16;;;10.61;47.79
69624;BME280;56843;52.020;5.670;2023-04-28T02:03:56;101082.38;;;10.60;47.87
69624;BME280;56843;52.020;5.670;2023-04-28T02:05:27;101079.22;;;10.58;47.93
69624;BME280;56843;52.020;5.670;2023-04-28T02:06:58;101072.00;;;10.59;47.85
69624;BME280;56843;52.020;5.670;2023-04-28T02:08:30;101065.41;;;10.56;47.95
69624;BME280;56843;52.020;5.670;2023-04-28T02:10:00;101075.00;;;10.57;48.04
69624;BME280;56843;52.020;5.670;2023-04-28T02:11:32;101064.66;;;10.56;48.08
69624;BME280;56843;52.020;5.670;2023-04-28T02:13:02;101060.41;;;10.55;48.27
69624;BME280;56843;52.020;5.670;2023-04-28T02:14:33;101053.19;;;10.55;48.09
69624;BME280;56843;52.020;5.670;2023-04-28T02:16:04;101050.03;;;10.53;48.24
69624;BME280;56843;52.020;5.670;2023-04-28T02:17:34;101063.06;;;10.55;48.14
69624;BME280;56843;52.020;5.670;2023-04-28T02:19:05;101060.06;;;10.56;48.07
69624;BME280;56843;52.020;5.670;2023-04-28T02:20:35;101051.31;;;10.56;48.08
69624;BME280;56843;52.020;5.670;2023-04-28T02:22:05;101045.16;;;10.55;48.06
69624;BME280;56843;52.020;5.670;2023-04-28T02:23:37;101053.66;;;10.57;47.85
69624;BME280;56843;52.020;5.670;2023-04-28T02:25:08;101051.31;;;10.56;47.73
69624;BME280;56843;52.020;5.670;2023-04-28T02:26:41;101047.50;;;10.57;47.95
69624;BME280;56843;52.020;5.670;2023-04-28T02:28:11;101044.06;;;10.56;47.86
69624;BME280;56843;52.020;5.670;2023-04-28T02:29:42;101039.50;;;10.57;47.79
69624;BME280;56843;52.020;5.670;2023-04-28T02:31:12;101034.16;;;10.57;47.91
69624;BME280;56843;52.020;5.670;2023-04-28T02:32:43;101033.84;;;10.58;47.92
69624;BME280;56843;52.020;5.670;2023-04-28T02:34:13;101038.09;;;10.59;47.98
69624;BME280;56843;52.020;5.670;2023-04-28T02:35:44;101039.19;;;10.58;47.92
69624;BME280;56843;52.020;5.670;2023-04-28T02:37:14;101037.63;;;10.57;48.03
69624;BME280;56843;52.020;5.670;2023-04-28T02:38:45;101034.16;;;10.57;47.75
69624;BME280;56843;52.020;5.670;2023-04-28T02:40:15;101034.94;;;10.57;47.94
69624;BME280;56843;52.020;5.670;2023-04-28T02:41:46;101034.94;;;10.57;48.00
69624;BME280;56843;52.020;5.670;2023-04-28T02:43:16;101026.47;;;10.55;47.86
69624;BME280;56843;52.020;5.670;2023-04-28T02:44:47;101021.13;;;10.55;47.90
69624;BME280;56843;52.020;5.670;2023-04-28T02:46:17;101027.56;;;10.54;48.01
69624;BME280;56843;52.020;5.670;2023-04-28T02:47:48;101022.53;;;10.53;48.07
69624;BME280;56843;52.020;5.670;2023-04-28T02:49:20;101014.06;;;10.51;48.00
69624;BME280;56843;52.020;5.670;2023-04-28T02:50:51;101005.41;;;10.54;48.14
69624;BME280;56843;52.020;5.670;2023-04-28T02:52:22;101013.91;;;10.56;48.14
69624;BME280;56843;52.020;5.670;2023-04-28T02:53:53;100995.06;;;10.52;48.15
69624;BME280;56843;52.020;5.670;2023-04-28T02:55:23;100993.97;;;10.53;48.01
69624;BME280;56843;52.020;5.670;2023-04-28T02:56:55;100986.25;;;10.52;48.17
69624;BME280;56843;52.020;5.670;2023-04-28T02:58:26;100988.16;;;10.51;48.13
69624;BME280;56843;52.020;5.670;2023-04-28T02:59:56;100980.59;;;10.53;48.32
69624;BME280;56843;52.020;5.670;2023-04-28T03:01:28;100985.16;;;10.53;48.27
69624;BME280;56843;52.020;5.670;2023-04-28T03:02:59;100991.28;;;10.53;48.28
69624;BME280;56843;52.020;5.670;2023-04-28T03:04:30;100982.50;;;10.53;48.15
69624;BME280;56843;52.020;5.670;2023-04-28T03:06:00;100987.38;;;10.51;48.09
69624;BME280;56843;52.020;5.670;2023-04-28T03:07:31;100990.81;;;10.51;48.08
69624;BME280;56843;52.020;5.670;2023-04-28T03:09:02;100971.19;;;10.47;48.01
69624;BME280;56843;52.020;5.670;2023-04-28T03:10:33;100983.91;;;10.50;48.05
69624;BME280;56843;52.020;5.670;2023-04-28T03:12:05;100974.34;;;10.49;48.29
69624;BME280;56843;52.020;5.670;2023-04-28T03:13:36;100975.91;;;10.50;48.21
69624;BME280;56843;52.020;5.670;2023-04-28T03:15:08;100985.03;;;10.49;48.14
69624;BME280;56843;52.020;5.670;2023-04-28T03:16:40;100981.56;;;10.49;48.02
69624;BME280;56843;52.020;5.670;2023-04-28T03:18:10;100978.56;;;10.50;48.13
69624;BME280;56843;52.020;5.670;2023-04-28T03:19:41;100967.88;;;10.50;48.18
69624;BME280;56843;52.020;5.670;2023-04-28T03:21:11;100965.22;;;10.50;48.08
69624;BME280;56843;52.020;5.670;2023-04-28T03:22:42;100963.66;;;10.49;48.26
69624;BME280;56843;52.020;5.670;2023-04-28T03:24:12;100959.72;;;10.47;48.28
69624;BME280;56843;52.020;5.670;2023-04-28T03:25:43;100975.44;;;10.48;48.12
69624;BME280;56843;52.020;5.670;2023-04-28T03:27:13;100975.44;;;10.48;48.19
69624;BME280;56843;52.020;5.670;2023-04-28T03:28:44;100971.19;;;10.47;48.34
69624;BME280;56843;52.020;5.670;2023-04-28T03:30:14;100969.63;;;10.46;48.05
69624;BME280;56843;52.020;5.670;2023-04-28T03:31:45;100966.97;;;10.46;48.52
69624;BME280;56843;52.020;5.670;2023-04-28T03:33:15;100957.34;;;10.45;48.12
69624;BME280;56843;52.020;5.670;2023-04-28T03:34:46;100956.59;;;10.45;48.14
69624;BME280;56843;52.020;5.670;2023-04-28T03:36:17;100965.38;;;10.45;48.33
69624;BME280;56843;52.020;5.670;2023-04-28T03:37:48;100965.06;;;10.47;48.33
69624;BME280;56843;52.020;5.670;2023-04-28T03:39:19;100958.94;;;10.46;48.20
69624;BME280;56843;52.020;5.670;2023-04-28T03:40:49;100965.84;;;10.47;48.13
69624;BME280;56843;52.020;5.670;2023-04-28T03:42:35;100961.94;;;10.45;48.40
69624;BME280;56843;52.020;5.670;2023-04-28T03:44:11;100961.94;;;10.45;48.42
69624;BME280;56843;52.020;5.670;2023-04-28T03:45:49;100963.16;;;10.47;48.02
69624;BME280;56843;52.020;5.670;2023-04-28T03:47:20;100961.63;;;10.46;48.54
69624;BME280;56843;52.020;5.670;2023-04-28T03:48:51;100951.72;;;10.47;48.30
69624;BME280;56843;52.020;5.670;2023-04-28T03:50:23;100957.19;;;10.50;48.17
69624;BME280;56843;52.020;5.670;2023-04-28T03:51:54;100959.88;;;10.50;48.22
69624;BME280;56843;52.020;5.670;2023-04-28T03:53:24;100954.19;;;10.52;48.31
69624;BME280;56843;52.020;5.670;2023-04-28T03:54:55;100959.53;;;10.52;48.30
69624;BME280;56843;52.020;5.670;2023-04-28T03:56:25;100949.19;;;10.50;48.21
69624;BME280;56843;52.020;5.670;2023-04-28T03:57:56;100949.97;;;10.51;48.43
69624;BME280;56843;52.020;5.670;2023-04-28T03:59:26;100951.88;;;10.50;48.29
69624;BME280;56843;52.020;5.670;2023-04-28T04:00:57;100946.06;;;10.48;48.38
69624;BME280;56843;52.020;5.670;2023-04-28T04:02:30;100945.25;;;10.48;48.45
69624;BME280;56843;52.020;5.670;2023-04-28T04:04:00;100945.25;;;10.48;48.33
69624;BME280;56843;52.020;5.670;2023-04-28T04:05:31;100937.72;;;10.50;48.36
69624;BME280;56843;52.020;5.670;2023-04-28T04:07:02;100932.38;;;10.50;48.53
69624;BME280;56843;52.020;5.670;2023-04-28T04:08:33;100936.97;;;10.49;48.64
69624;BME280;56843;52.020;5.670;2023-04-28T04:10:04;100933.50;;;10.49;48.60
69624;BME280;56843;52.020;5.670;2023-04-28T04:11:37;100929.25;;;10.48;48.63
69624;BME280;56843;52.020;5.670;2023-04-28T04:13:07;100936.16;;;10.49;48.78
69624;BME280;56843;52.020;5.670;2023-04-28T04:14:38;100926.91;;;10.46;48.88
69624;BME280;56843;52.020;5.670;2023-04-28T04:16:08;100932.25;;;10.46;48.50
69624;BME280;56843;52.020;5.670;2023-04-28T04:17:39;100929.13;;;10.44;48.45
69624;BME280;56843;52.020;5.670;2023-04-28T04:19:10;100930.38;;;10.47;48.73
69624;BME280;56843;52.020;5.670;2023-04-28T04:20:53;100924.22;;;10.46;48.95
69624;BME280;56843;52.020;5.670;2023-04-28T04:22:25;100926.91;;;10.46;48.95
69624;BME280;56843;52.020;5.670;2023-04-28T04:23:56;100923.44;;;10.46;48.90
69624;BME280;56843;52.020;5.670;2023-04-28T04:25:26;100918.91;;;10.46;48.98
69624;BME280;56843;52.020;5.670;2023-04-28T04:26:58;100917.63;;;10.44;49.08
69624;BME280;56843;52.020;5.670;2023-04-28T04:28:35;100911.97;;;10.45;49.11
69624;BME280;56843;52.020;5.670;2023-04-28T04:30:07;100912.75;;;10.46;48.93
69624;BME280;56843;52.020;5.670;2023-04-28T04:31:40;100905.88;;;10.45;49.09
69624;BME280;56843;52.020;5.670;2023-04-28T04:33:10;100902.88;;;10.46;49.00
69624;BME280;56843;52.020;5.670;2023-04-28T04:34:41;100898.94;;;10.44;49.16
69624;BME280;56843;52.020;5.670;2023-04-28T04:36:11;100903.66;;;10.47;49.30
69624;BME280;56843;52.020;5.670;2023-04-28T04:37:43;100906.78;;;10.49;49.12
69624;BME280;56843;52.020;5.670;2023-04-28T04:39:13;100901.47;;;10.49;49.21
69624;BME280;56843;52.020;5.670;2023-04-28T04:40:44;100903.78;;;10.50;49.37
69624;BME280;56843;52.020;5.670;2023-04-28T04:42:15;100895.00;;;10.50;49.51
69624;BME280;56843;52.020;5.670;2023-04-28T04:43:49;100898.00;;;10.48;49.29
69624;BME280;56843;52.020;5.670;2023-04-28T04:45:21;100898.47;;;10.50;49.55
69624;BME280;56843;52.020;5.670;2023-04-28T04:46:52;100897.66;;;10.50;49.61
69624;BME280;56843;52.020;5.670;2023-04-28T04:48:24;100890.44;;;10.50;49.59
69624;BME280;56843;52.020;5.670;2023-04-28T04:49:54;100890.44;;;10.50;49.81
69624;BME280;56843;52.020;5.670;2023-04-28T04:51:26;100896.59;;;10.51;49.77
69624;BME280;56843;52.020;5.670;2023-04-28T04:52:57;100892.78;;;10.52;49.73
69624;BME280;56843;52.020;5.670;2023-04-28T04:54:29;100889.34;;;10.51;49.90
69624;BME280;56843;52.020;5.670;2023-04-28T04:56:00;100895.91;;;10.54;50.16
69624;BME280;56843;52.020;5.670;2023-04-28T04:57:32;100882.28;;;10.55;49.66
69624;BME280;56843;52.020;5.670;2023-04-28T04:59:12;100882.28;;;10.55;50.31
69624;BME280;56843;52.020;5.670;2023-04-28T05:00:50;100875.50;;;10.58;50.18
69624;BME280;56843;52.020;5.670;2023-04-28T05:02:21;100874.38;;;10.59;50.39
69624;BME280;56843;52.020;5.670;2023-04-28T05:03:52;100867.16;;;10.59;50.46
69624;BME280;56843;52.020;5.670;2023-04-28T05:05:23;100867.97;;;10.60;50.59
69624;BME280;56843;52.020;5.670;2023-04-28T05:07:07;100872.19;;;10.61;50.48
69624;BME280;56843;52.020;5.670;2023-04-28T05:08:37;100869.50;;;10.61;50.86
69624;BME280;56843;52.020;5.670;2023-04-28T05:10:08;100872.63;;;10.63;50.91
69624;BME280;56843;52.020;5.670;2023-04-28T05:11:40;100869.97;;;10.63;51.10
69624;BME280;56843;52.020;5.670;2023-04-28T05:13:11;100869.97;;;10.63;51.29
69624;BME280;56843;52.020;5.670;2023-04-28T05:14:42;100877.34;;;10.66;51.30
69624;BME280;56843;52.020;5.670;2023-04-28T05:16:13;100878.59;;;10.68;51.39
69624;BME280;56843;52.020;5.670;2023-04-28T05:18:05;100871.38;;;10.69;51.26
69624;BME280;56843;52.020;5.670;2023-04-28T05:19:39;100872.59;;;10.71;51.61
69624;BME280;56843;52.020;5.670;2023-04-28T05:21:10;100860.50;;;10.74;51.50
69624;BME280;56843;52.020;5.670;2023-04-28T05:22:41;100867.09;;;10.76;51.50
69624;BME280;56843;52.020;5.670;2023-04-28T05:24:13;100859.53;;;10.78;51.84
69624;BME280;56843;52.020;5.670;2023-04-28T05:25:44;100856.09;;;10.78;51.56
69624;BME280;56843;52.020;5.670;2023-04-28T05:27:14;100869.59;;;10.81;51.96
69624;BME280;56843;52.020;5.670;2023-04-28T05:28:45;100867.38;;;10.83;51.87
69624;BME280;56843;52.020;5.670;2023-04-28T05:30:16;100870.84;;;10.84;52.34
69624;BME280;56843;52.020;5.670;2023-04-28T05:31:46;100867.38;;;10.83;52.19
69624;BME280;56843;52.020;5.670;2023-04-28T05:33:18;100868.63;;;10.86;52.31
69624;BME280;56843;52.020;5.670;2023-04-28T05:34:48;100864.06;;;10.86;52.62
69624;BME280;56843;52.020;5.670;2023-04-28T05:36:21;100875.22;;;10.88;52.91
69624;BME280;56843;52.020;5.670;2023-04-28T05:37:54;100872.84;;;10.87;52.76
69624;BME280;56843;52.020;5.670;2023-04-28T05:39:25;100854.63;;;10.89;53.13
69624;BME280;56843;52.020;5.670;2023-04-28T05:40:57;100862.78;;;10.92;53.12
69624;BME280;56843;52.020;5.670;2023-04-28T05:42:28;100856.63;;;10.92;53.06
69624;BME280;56843;52.020;5.670;2023-04-28T05:43:58;100862.13;;;10.95;53.20
69624;BME280;56843;52.020;5.670;2023-04-28T05:45:29;100867.94;;;10.97;53.27
69624;BME280;56843;52.020;5.670;2023-04-28T05:47:01;100875.16;;;10.97;53.32
69624;BME280;56843;52.020;5.670;2023-04-28T05:48:32;100868.56;;;10.94;53.17
69624;BME280;56843;52.020;5.670;2023-04-28T05:50:04;100872.16;;;10.98;53.62
69624;BME280;56843;52.020;5.670;2023-04-28T05:51:34;100882.84;;;10.98;53.71
69624;BME280;56843;52.020;5.670;2023-04-28T05:53:06;100884.88;;;11.01;53.67
69624;BME280;56843;52.020;5.670;2023-04-28T05:54:37;100881.88;;;11.03;53.91
69624;BME280;56843;52.020;5.670;2023-04-28T05:56:07;100887.69;;;11.05;53.72
69624;BME280;56843;52.020;5.670;2023-04-28T05:57:38;100877.00;;;11.05;53.88
69624;BME280;56843;52.020;5.670;2023-04-28T05:59:09;100880.13;;;11.07;54.05
69624;BME280;56843;52.020;5.670;2023-04-28T06:00:40;100883.59;;;11.07;54.23
69624;BME280;56843;52.020;5.670;2023-04-28T06:02:10;100879.50;;;11.10;54.20
69624;BME280;56843;52.020;5.670;2023-04-28T06:03:41;100873.06;;;11.11;54.25
69624;BME280;56843;52.020;5.670;2023-04-28T06:05:14;100879.94;;;11.12;54.37
69624;BME280;56843;52.020;5.670;2023-04-28T06:06:44;100879.81;;;11.08;54.87
69624;BME280;56843;52.020;5.670;2023-04-28T06:08:15;100872.91;;;11.07;55.09
69624;BME280;56843;52.020;5.670;2023-04-28T06:09:46;100875.13;;;11.05;55.24
69624;BME280;56843;52.020;5.670;2023-04-28T06:11:18;100876.69;;;11.06;55.50
69624;BME280;56843;52.020;5.670;2023-04-28T06:12:51;100873.53;;;11.04;55.74
69624;BME280;56843;52.020;5.670;2023-04-28T06:14:22;100875.75;;;11.02;55.92
69624;BME280;56843;52.020;5.670;2023-04-28T06:15:53;100874.66;;;11.03;56.23
69624;BME280;56843;52.020;5.670;2023-04-28T06:17:23;100882.53;;;11.00;56.38
69624;BME280;56843;52.020;5.670;2023-04-28T06:18:53;100879.38;;;10.98;56.60
69624;BME280;56843;52.020;5.670;2023-04-28T06:20:24;100885.53;;;10.98;56.82
69624;BME280;56843;52.020;5.670;2023-04-28T06:21:55;100870.59;;;10.97;57.26
69624;BME280;56843;52.020;5.670;2023-04-28T06:23:25;100870.91;;;10.96;57.21
69624;BME280;56843;52.020;5.670;2023-04-28T06:24:57;100882.38;;;10.96;57.53
69624;BME280;56843;52.020;5.670;2023-04-28T06:26:37;100867.00;;;10.93;57.84
69624;BME280;56843;52.020;5.670;2023-04-28T06:28:08;100878.63;;;10.97;58.05
69624;BME280;56843;52.020;5.670;2023-04-28T06:29:38;100869.03;;;10.96;58.06
69624;BME280;56843;52.020;5.670;2023-04-28T06:31:09;100856.00;;;10.95;58.71
69624;BME280;56843;52.020;5.670;2023-04-28T06:32:39;100860.56;;;10.94;58.79
69624;BME280;56843;52.020;5.670;2023-04-28T06:34:09;100852.41;;;10.91;58.93
69624;BME280;56843;52.020;5.670;2023-04-28T06:35:40;100859.63;;;10.90;59.13
69624;BME280;56843;52.020;5.670;2023-04-28T06:37:11;100858.06;;;10.89;59.35
69624;BME280;56843;52.020;5.670;2023-04-28T06:38:41;100871.41;;;10.89;59.50
69624;BME280;56843;52.020;5.670;2023-04-28T06:40:13;100869.88;;;10.88;60.04
69624;BME280;56843;52.020;5.670;2023-04-28T06:41:47;100869.41;;;10.86;59.99
69624;BME280;56843;52.020;5.670;2023-04-28T06:43:18;100864.53;;;10.88;60.01
69624;BME280;56843;52.020;5.670;2023-04-28T06:45:07;100862.16;;;10.87;60.54
69624;BME280;56843;52.020;5.670;2023-04-28T06:46:40;100868.28;;;10.87;60.39
69624;BME280;56843;52.020;5.670;2023-04-28T06:48:13;100868.56;;;10.94;60.53
69624;BME280;56843;52.020;5.670;2023-04-28T06:49:44;100868.84;;;11.01;60.05
69624;BME280;56843;52.020;5.670;2023-04-28T06:51:16;100868.81;;;11.10;60.36
69624;BME280;56843;52.020;5.670;2023-04-28T06:52:47;100872.66;;;11.21;60.16
69624;BME280;56843;52.020;5.670;2023-04-28T06:54:17;100871.50;;;11.31;60.01
69624;BME280;56843;52.020;5.670;2023-04-28T06:55:47;100862.63;;;11.39;59.64
69624;BME280;56843;52.020;5.670;2023-04-28T06:57:18;100858.66;;;11.45;59.33
69624;BME280;56843;52.020;5.670;2023-04-28T06:58:50;100854.81;;;11.54;59.31
69624;BME280;56843;52.020;5.670;2023-04-28T07:00:21;100862.78;;;11.63;59.08
69624;BME280;56843;52.020;5.670;2023-04-28T07:01:51;100860.38;;;11.70;59.19
69624;BME280;56843;52.020;5.670;2023-04-28T07:03:22;100865.97;;;11.77;58.81
69624;BME280;56843;52.020;5.670;2023-04-28T07:04:52;100865.91;;;11.86;59.07
69624;BME280;56843;52.020;5.670;2023-04-28T07:06:23;100863.78;;;11.91;58.83
69624;BME280;56843;52.020;5.670;2023-04-28T07:07:54;100868.59;;;11.98;58.84
69624;BME280;56843;52.020;5.670;2023-04-28T07:09:24;100853.59;;;12.05;58.75
69624;BME280;56843;52.020;5.670;2023-04-28T07:10:55;100861.41;;;12.10;58.33
69624;BME280;56843;52.020;5.670;2023-04-28T07:12:26;100845.13;;;12.15;58.49
69624;BME280;56843;52.020;5.670;2023-04-28T07:13:59;100838.44;;;12.21;57.91
69624;BME280;56843;52.020;5.670;2023-04-28T07:15:30;100839.78;;;12.27;58.28
69624;BME280;56843;52.020;5.670;2023-04-28T07:17:00;100839.91;;;12.31;57.99
69624;BME280;56843;52.020;5.670;2023-04-28T07:18:31;100842.38;;;12.36;57.99
69624;BME280;56843;52.020;5.670;2023-04-28T07:20:01;100837.91;;;12.40;58.18
69624;BME280;56843;52.020;5.670;2023-04-28T07:21:33;100835.81;;;12.45;57.74
69624;BME280;56843;52.020;5.670;2023-04-28T07:23:06;100834.47;;;12.51;58.18
69624;BME280;56843;52.020;5.670;2023-04-28T07:24:37;100832.69;;;12.55;57.72
69624;BME280;56843;52.020;5.670;2023-04-28T07:26:09;100837.81;;;12.61;57.77
69624;BME280;56843;52.020;5.670;2023-04-28T07:27:40;100837.47;;;12.62;57.47
69624;BME280;56843;52.020;5.670;2023-04-28T07:29:10;100834.25;;;12.69;57.51
69624;BME280;56843;52.020;5.670;2023-04-28T07:30:42;100834.69;;;12.71;57.26
69624;BME280;56843;52.020;5.670;2023-04-28T07:32:13;100849.00;;;12.75;57.15
69624;BME280;56843;52.020;5.670;2023-04-28T07:33:43;100841.84;;;12.79;57.17
69624;BME280;56843;52.020;5.670;2023-04-28T07:35:14;100835.06;;;12.81;57.22
69624;BME280;56843;52.020;5.670;2023-04-28T07:36:44;100838.63;;;12.85;56.93
69624;BME280;56843;52.020;5.670;2023-04-28T07:38:15;100832.94;;;12.87;56.88
69624;BME280;56843;52.020;5.670;2023-04-28T07:39:46;100833.50;;;12.92;56.83
69624;BME280;56843;52.020;5.670;2023-04-28T07:41:16;100840.84;;;12.95;56.80
69624;BME280;56843;52.020;5.670;2023-04-28T07:42:48;100832.13;;;12.98;56.94
69624;BME280;56843;52.020;5.670;2023-04-28T07:44:18;100838.38;;;13.02;56.64
69624;BME280;56843;52.020;5.670;2023-04-28T07:45:49;100840.72;;;13.04;56.66
69624;BME280;56843;52.020;5.670;2023-04-28T07:47:19;100838.16;;;13.07;56.94
69624;BME280;56843;52.020;5.670;2023-04-28T07:48:50;100843.97;;;13.09;56.78
69624;BME280;56843;52.020;5.670;2023-04-28T07:50:20;100839.81;;;13.12;56.88
69624;BME280;56843;52.020;5.670;2023-04-28T07:51:51;100837.59;;;13.14;56.60
69624;BME280;56843;52.020;5.670;2023-04-28T07:53:24;100838.47;;;13.18;56.52
69624;BME280;56843;52.020;5.670;2023-04-28T07:54:54;100845.41;;;13.19;56.71
69624;BME280;56843;52.020;5.670;2023-04-28T07:56:25;100839.69;;;13.20;56.52
69624;BME280;56843;52.020;5.670;2023-04-28T07:57:55;100836.31;;;13.23;56.49
69624;BME280;56843;52.020;5.670;2023-04-28T07:59:27;100834.88;;;13.26;56.44